Time;durP1;ratioP1;P1;durP2;ratioP2;P2;SDS_P1;SDS_P2;PMS_P1;PMS_P2;Temp;Humidity;BMP_temperature;BMP_pressure;BME280_temperature;BME280_humidity;BME280_pressure;Samples;Min_cycle;Max_cycle;Signal;HPM_P1;HPM_P2
2023/09/20 00:02:14;;;;;;;2.53;1.80;;;;;;;;;;5006304;28;20211;-77
2023/09/20 00:04:42;;;;;;;1.92;1.83;;;;;;;;;;5009427;28;20254;-78
2023/09/20 00:07:10;;;;;;;3.27;1.70;;;;;;;;;;4997305;28;20254;-79
2023/09/20 00:09:38;;;;;;;1.77;1.67;;;;;;;;;;5006364;28;20259;-79
2023/09/20 00:12:06;;;;;;;2.57;1.80;;;;;;;;;;5016024;28;20208;-78
2023/09/20 00:14:33;;;;;;;2.00;1.90;;;;;;;;;;5011399;28;20246;-78
2023/09/20 00:17:01;;;;;;;2.70;2.10;;;;;;;;;;5006256;28;20281;-80
2023/09/20 00:19:28;;;;;;;1.90;1.67;;;;;;;;;;5016594;28;20292;-78
2023/09/20 00:21:56;;;;;;;2.03;1.70;;;;;;;;;;5016474;28;20203;-78
2023/09/20 00:24:23;;;;;;;2.17;1.70;;;;;;;;;;5013110;28;20207;-79
2023/09/20 00:26:51;;;;;;;1.88;1.60;;;;;;;;;;5015957;28;20589;-80
2023/09/20 00:29:18;;;;;;;4.40;1.70;;;;;;;;;;5015555;28;20246;-79
2023/09/20 00:31:46;;;;;;;2.13;1.80;;;;;;;;;;4997039;28;20207;-80
2023/09/20 00:34:13;;;;;;;3.83;1.67;;;;;;;;;;5018965;28;20227;-79
2023/09/20 00:36:40;;;;;;;2.00;1.80;;;;;;;;;;5017171;28;20232;-78
2023/09/20 00:39:09;;;;;;;1.67;1.57;;;;;;;;;;4997042;28;20238;-80
2023/09/20 00:41:37;;;;;;;2.50;1.52;;;;;;;;;;5013659;28;20211;-80
2023/09/20 00:44:05;;;;;;;2.40;1.80;;;;;;;;;;5015281;28;20609;-77
2023/09/20 00:46:33;;;;;;;2.00;1.63;;;;;;;;;;4996997;28;20567;-79
2023/09/20 00:49:01;;;;;;;2.90;2.10;;;;;;;;;;5006940;28;20577;-78
2023/09/20 00:51:28;;;;;;;4.25;1.63;;;;;;;;;;5013910;28;20200;-77
2023/09/20 00:53:58;;;;;;;3.03;1.92;;;;;;;;;;5019325;28;20220;-78
2023/09/20 00:56:25;;;;;;;2.13;1.90;;;;;;;;;;5015516;28;20423;-79
2023/09/20 00:58:55;;;;;;;2.13;1.63;;;;;;;;;;5012938;28;20201;-79
2023/09/20 01:01:26;;;;;;;3.03;1.97;;;;;;;;;;5015362;28;20275;-79
2023/09/20 01:03:55;;;;;;;1.93;1.83;;;;;;;;;;5016691;28;20242;-78
2023/09/20 01:06:23;;;;;;;1.80;1.70;;;;;;;;;;5018576;28;20204;-78
2023/09/20 01:08:51;;;;;;;1.67;1.57;;;;;;;;;;5012186;28;20199;-78
2023/09/20 01:11:18;;;;;;;1.63;1.52;;;;;;;;;;5019347;28;20287;-78
2023/09/20 01:13:47;;;;;;;3.00;1.97;;;;;;;;;;5014445;28;20243;-77
2023/09/20 01:16:15;;;;;;;1.60;1.50;;;;;;;;;;5008933;28;20592;-78
2023/09/20 01:18:44;;;;;;;2.50;1.70;;;;;;;;;;5008762;28;20231;-77
2023/09/20 01:21:12;;;;;;;1.55;1.35;;;;;;;;;;5012579;28;20240;-80
2023/09/20 01:23:42;;;;;;;1.97;1.77;;;;;;;;;;5010921;28;20231;-76
2023/09/20 01:26:13;;;;;;;1.83;1.73;;;;;;;;;;5014527;28;20283;-79
2023/09/20 01:28:41;;;;;;;1.60;1.50;;;;;;;;;;4996189;28;20208;-78
2023/09/20 01:31:10;;;;;;;2.60;1.87;;;;;;;;;;5015872;28;20620;-78
2023/09/20 01:33:38;;;;;;;2.17;1.80;;;;;;;;;;5011353;28;20254;-78
2023/09/20 01:36:06;;;;;;;1.97;1.67;;;;;;;;;;5015465;28;20296;-78
2023/09/20 01:38:34;;;;;;;2.37;1.70;;;;;;;;;;5013862;28;20227;-79
2023/09/20 01:41:05;;;;;;;1.73;1.60;;;;;;;;;;5013871;28;20204;-78
2023/09/20 01:43:34;;;;;;;2.50;1.60;;;;;;;;;;5016405;28;20722;-77
2023/09/20 01:46:03;;;;;;;2.00;1.70;;;;;;;;;;4998315;28;20203;-79
2023/09/20 01:48:30;;;;;;;2.83;1.83;;;;;;;;;;5011487;28;20590;-78
2023/09/20 01:50:58;;;;;;;2.00;1.80;;;;;;;;;;5019937;28;20238;-80
2023/09/20 01:53:25;;;;;;;1.60;1.50;;;;;;;;;;4996956;28;20653;-79
2023/09/20 01:55:54;;;;;;;2.57;1.60;;;;;;;;;;5007741;28;20307;-79
2023/09/20 01:58:23;;;;;;;1.70;1.60;;;;;;;;;;4997552;28;20242;-77
2023/09/20 02:00:50;;;;;;;1.80;1.70;;;;;;;;;;5013847;28;20202;-77
2023/09/20 02:03:18;;;;;;;1.60;1.50;;;;;;;;;;5013459;28;20238;-77
2023/09/20 02:05:47;;;;;;;1.90;1.80;;;;;;;;;;5014439;28;20266;-80
2023/09/20 02:08:16;;;;;;;1.87;1.70;;;;;;;;;;4999326;28;20207;-78
2023/09/20 02:10:44;;;;;;;3.43;1.90;;;;;;;;;;5012670;28;20654;-77
2023/09/20 02:13:15;;;;;;;2.37;1.70;;;;;;;;;;5013625;28;20734;-80
2023/09/20 02:15:44;;;;;;;2.33;1.67;;;;;;;;;;4998914;28;20218;-79
2023/09/20 02:18:12;;;;;;;2.90;2.07;;;;;;;;;;5013658;28;20308;-78
2023/09/20 02:20:39;;;;;;;1.90;1.80;;;;;;;;;;5016425;28;20207;-77
2023/09/20 02:23:12;;;;;;;2.23;1.93;;;;;;;;;;5012929;28;20283;-79
2023/09/20 02:25:41;;;;;;;3.07;1.90;;;;;;;;;;5014815;28;20204;-77
2023/09/20 02:28:10;;;;;;;2.97;2.10;;;;;;;;;;5011914;28;20235;-79
2023/09/20 02:30:38;;;;;;;3.83;2.17;;;;;;;;;;4994665;28;20318;-79
2023/09/20 02:33:07;;;;;;;2.00;1.80;;;;;;;;;;5012119;28;20874;-79
2023/09/20 02:35:39;;;;;;;1.90;1.80;;;;;;;;;;5017586;28;20207;-79
2023/09/20 02:38:07;;;;;;;2.03;1.90;;;;;;;;;;4999244;28;20228;-79
2023/09/20 02:40:35;;;;;;;2.23;1.70;;;;;;;;;;5014243;28;20238;-80
2023/09/20 02:43:08;;;;;;;2.10;1.90;;;;;;;;;;5017971;28;20470;-79
2023/09/20 02:45:36;;;;;;;3.17;2.13;;;;;;;;;;5011663;28;20236;-78
2023/09/20 02:48:06;;;;;;;2.60;1.87;;;;;;;;;;5016264;28;20203;-78
2023/09/20 02:50:35;;;;;;;6.27;3.50;;;;;;;;;;5011974;28;20298;-79
2023/09/20 02:53:03;;;;;;;3.23;2.13;;;;;;;;;;5019599;28;20226;-79
2023/09/20 02:55:31;;;;;;;3.33;2.40;;;;;;;;;;5014678;28;20212;-80
2023/09/20 02:57:59;;;;;;;2.70;2.20;;;;;;;;;;4993272;28;20240;-79
2023/09/20 03:00:30;;;;;;;4.10;2.43;;;;;;;;;;5011920;28;20207;-78
2023/09/20 03:03:01;;;;;;;4.33;3.30;;;;;;;;;;5015249;28;20302;-79
2023/09/20 03:05:30;;;;;;;3.83;2.53;;;;;;;;;;4998820;28;20208;-78
2023/09/20 03:07:58;;;;;;;4.03;3.00;;;;;;;;;;5017057;28;20204;-79
2023/09/20 03:10:27;;;;;;;4.00;2.50;;;;;;;;;;5019384;28;20217;-79
2023/09/20 03:12:55;;;;;;;3.03;2.20;;;;;;;;;;5015526;28;20255;-79
2023/09/20 03:15:23;;;;;;;2.20;2.00;;;;;;;;;;5017924;28;20218;-78
2023/09/20 03:17:55;;;;;;;3.97;2.20;;;;;;;;;;5014982;28;20775;-79
2023/09/20 03:20:24;;;;;;;2.27;1.90;;;;;;;;;;5018197;28;20211;-79
2023/09/20 03:22:56;;;;;;;5.97;4.07;;;;;;;;;;5017601;28;20226;-79
2023/09/20 03:25:23;;;;;;;4.80;2.23;;;;;;;;;;5018199;28;20652;-79
2023/09/20 03:27:53;;;;;;;3.60;2.50;;;;;;;;;;5014223;28;20230;-79
2023/09/20 03:30:20;;;;;;;2.47;2.00;;;;;;;;;;5012994;28;20212;-78
2023/09/20 03:32:48;;;;;;;6.87;4.97;;;;;;;;;;5012497;28;20227;-77
2023/09/20 03:35:16;;;;;;;4.10;2.60;;;;;;;;;;5012601;28;20231;-79
2023/09/20 03:37:45;;;;;;;2.37;1.97;;;;;;;;;;5013095;28;20227;-78
2023/09/20 03:40:17;;;;;;;5.10;3.70;;;;;;;;;;5017562;28;20265;-78
2023/09/20 03:42:46;;;;;;;5.47;3.93;;;;;;;;;;5014137;28;20702;-78
2023/09/20 03:45:14;;;;;;;4.00;2.87;;;;;;;;;;5016666;28;20204;-79
2023/09/20 03:47:42;;;;;;;3.03;2.77;;;;;;;;;;5002875;28;20246;-79
2023/09/20 03:50:10;;;;;;;2.50;2.30;;;;;;;;;;5021045;28;20217;-79
2023/09/20 03:52:38;;;;;;;5.00;2.40;;;;;;;;;;5002775;28;20235;-79
2023/09/20 03:55:06;;;;;;;2.87;2.40;;;;;;;;;;4989351;28;20211;-78
2023/09/20 03:57:34;;;;;;;2.70;2.27;;;;;;;;;;5019497;28;20231;-78
2023/09/20 04:00:06;;;;;;;3.83;2.37;;;;;;;;;;5013584;28;20208;-79
2023/09/20 04:02:37;;;;;;;2.03;1.87;;;;;;;;;;5023198;28;20226;-79
2023/09/20 04:05:15;;;;;;;2.97;2.03;;;;;;;;;;5002233;28;20227;-79
2023/09/20 04:08:02;;;;;;;4.53;2.20;;;;;;;;;;5014837;28;20203;-81
2023/09/20 04:10:29;;;;;;;3.10;2.10;;;;;;;;;;4997275;28;20211;-80
2023/09/20 04:12:57;;;;;;;3.47;2.67;;;;;;;;;;5012047;28;20230;-80
2023/09/20 04:15:24;;;;;;;3.13;2.50;;;;;;;;;;5013983;28;20235;-80
2023/09/20 04:17:51;;;;;;;5.13;2.90;;;;;;;;;;4996217;28;20235;-78
2023/09/20 04:20:22;;;;;;;5.63;2.43;;;;;;;;;;4997036;28;20204;-77
2023/09/20 04:22:50;;;;;;;2.47;2.07;;;;;;;;;;4996267;28;20695;-80
2023/09/20 04:25:18;;;;;;;3.10;2.00;;;;;;;;;;5014133;28;20234;-78
2023/09/20 04:27:46;;;;;;;4.40;4.00;;;;;;;;;;5011862;28;20223;-79
2023/09/20 04:30:14;;;;;;;5.97;3.77;;;;;;;;;;5011835;28;20278;-80
2023/09/20 04:32:42;;;;;;;5.03;2.50;;;;;;;;;;5013209;28;20235;-80
2023/09/20 04:35:09;;;;;;;2.83;2.40;;;;;;;;;;5013737;28;20273;-79
2023/09/20 04:37:37;;;;;;;2.60;2.10;;;;;;;;;;5012040;28;20239;-80
2023/09/20 04:40:07;;;;;;;3.83;2.20;;;;;;;;;;5013586;28;20204;-77
2023/09/20 04:42:35;;;;;;;2.50;2.27;;;;;;;;;;4995870;28;20228;-80
2023/09/20 04:45:07;;;;;;;3.13;2.40;;;;;;;;;;5011968;28;20197;-78
2023/09/20 04:47:36;;;;;;;2.50;2.30;;;;;;;;;;5014261;28;20204;-79
2023/09/20 04:50:05;;;;;;;2.50;2.10;;;;;;;;;;5012025;28;20714;-81
2023/09/20 04:52:33;;;;;;;2.90;2.57;;;;;;;;;;4993076;28;20314;-78
2023/09/20 04:55:01;;;;;;;4.57;2.37;;;;;;;;;;5008935;28;20211;-79
2023/09/20 04:57:29;;;;;;;3.17;2.00;;;;;;;;;;4997708;28;20200;-79
2023/09/20 04:59:56;;;;;;;2.30;2.10;;;;;;;;;;4990003;28;20299;-81
2023/09/20 05:02:24;;;;;;;3.13;2.37;;;;;;;;;;5012295;28;20313;-81
2023/09/20 05:04:53;;;;;;;3.23;2.70;;;;;;;;;;5012140;28;20648;-79
2023/09/20 05:07:21;;;;;;;2.33;2.23;;;;;;;;;;5014040;28;20561;-78
2023/09/20 05:09:50;;;;;;;2.30;2.10;;;;;;;;;;5012245;28;20238;-81
2023/09/20 05:12:17;;;;;;;2.63;2.10;;;;;;;;;;5013040;28;20226;-80
2023/09/20 05:14:45;;;;;;;3.27;2.43;;;;;;;;;;5011976;28;20208;-81
2023/09/20 05:17:14;;;;;;;6.70;2.67;;;;;;;;;;5013725;28;20204;-80
2023/09/20 05:19:41;;;;;;;3.97;2.40;;;;;;;;;;5012512;28;20659;-80
2023/09/20 05:22:08;;;;;;;2.70;2.50;;;;;;;;;;5013123;28;20587;-79
2023/09/20 05:24:36;;;;;;;3.30;2.47;;;;;;;;;;5013593;28;20210;-78
2023/09/20 05:27:03;;;;;;;2.80;2.43;;;;;;;;;;5013201;28;20196;-80
2023/09/20 05:29:32;;;;;;;3.30;2.40;;;;;;;;;;5012727;28;20208;-79
2023/09/20 05:32:02;;;;;;;2.60;2.40;;;;;;;;;;5012174;28;20228;-78
2023/09/20 05:34:30;;;;;;;2.63;2.17;;;;;;;;;;4994852;28;20278;-80
2023/09/20 05:36:57;;;;;;;4.23;2.20;;;;;;;;;;5010808;28;20212;-78
2023/09/20 05:39:25;;;;;;;2.50;2.13;;;;;;;;;;5012146;28;20610;-80
2023/09/20 05:41:52;;;;;;;3.30;2.07;;;;;;;;;;4994565;28;20215;-78
2023/09/20 05:44:20;;;;;;;3.90;2.40;;;;;;;;;;4995891;28;20239;-78
2023/09/20 05:46:47;;;;;;;2.83;2.20;;;;;;;;;;5011751;28;20207;-79
2023/09/20 05:49:15;;;;;;;4.30;2.33;;;;;;;;;;5012272;28;20212;-79
2023/09/20 05:51:44;;;;;;;3.93;2.97;;;;;;;;;;5012152;28;20203;-79
2023/09/20 05:54:11;;;;;;;3.00;2.47;;;;;;;;;;5012785;28;20227;-80
2023/09/20 05:56:39;;;;;;;3.60;2.50;;;;;;;;;;5013001;28;20213;-80
2023/09/20 05:59:07;;;;;;;3.13;2.63;;;;;;;;;;5011864;28;20228;-78
2023/09/20 06:01:39;;;;;;;2.50;2.30;;;;;;;;;;5010996;28;20207;-79
2023/09/20 06:04:09;;;;;;;2.40;2.00;;;;;;;;;;4994602;28;20239;-80
2023/09/20 06:06:40;;;;;;;2.43;2.20;;;;;;;;;;5014737;28;20203;-79
2023/09/20 06:09:08;;;;;;;5.20;2.33;;;;;;;;;;5012704;28;20708;-81
2023/09/20 06:11:36;;;;;;;2.40;2.20;;;;;;;;;;5015227;28;20254;-80
2023/09/20 06:14:07;;;;;;;4.90;2.30;;;;;;;;;;4996562;28;20270;-81
2023/09/20 06:16:35;;;;;;;2.63;2.43;;;;;;;;;;5014707;28;20638;-80
2023/09/20 06:19:02;;;;;;;2.57;2.20;;;;;;;;;;5012812;28;20678;-80
2023/09/20 06:21:38;;;;;;;3.87;2.10;;;;;;;;;;5015234;28;20418;-81
2023/09/20 06:24:10;;;;;;;5.27;2.53;;;;;;;;;;5012863;28;20314;-82
2023/09/20 06:26:40;;;;;;;3.87;2.27;;;;;;;;;;5014063;28;20231;-82
2023/09/20 06:29:09;;;;;;;2.60;2.40;;;;;;;;;;5014127;28;20228;-81
2023/09/20 06:31:37;;;;;;;3.53;2.13;;;;;;;;;;5014622;28;20309;-82
2023/09/20 06:34:05;;;;;;;3.90;2.47;;;;;;;;;;5020394;28;20609;-81
2023/09/20 06:36:33;;;;;;;3.87;2.30;;;;;;;;;;5013008;28;20231;-81
2023/09/20 06:39:00;;;;;;;2.73;2.17;;;;;;;;;;5012352;28;20224;-82
2023/09/20 06:41:28;;;;;;;3.67;2.10;;;;;;;;;;5013143;28;20271;-82
2023/09/20 06:43:57;;;;;;;3.20;2.20;;;;;;;;;;5012962;28;20230;-79
2023/09/20 06:46:25;;;;;;;3.73;2.10;;;;;;;;;;5013533;28;20281;-80
2023/09/20 06:48:55;;;;;;;2.57;1.97;;;;;;;;;;5011065;28;20219;-83
2023/09/20 06:51:23;;;;;;;2.17;1.97;;;;;;;;;;4996598;28;20337;-82
2023/09/20 06:53:50;;;;;;;2.50;1.93;;;;;;;;;;5007191;28;20718;-81
2023/09/20 06:56:18;;;;;;;3.50;2.10;;;;;;;;;;4996518;28;20222;-81
2023/09/20 06:58:46;;;;;;;2.20;1.83;;;;;;;;;;5012631;28;20691;-82
2023/09/20 07:01:13;;;;;;;2.05;1.92;;;;;;;;;;5013286;28;20211;-81
2023/09/20 07:03:42;;;;;;;2.15;1.98;;;;;;;;;;5013165;28;20228;-81
2023/09/20 07:06:09;;;;;;;2.10;1.90;;;;;;;;;;5012755;28;20295;-81
2023/09/20 07:08:37;;;;;;;2.88;2.00;;;;;;;;;;4995571;28;20226;-81
2023/09/20 07:11:04;;;;;;;2.20;2.00;;;;;;;;;;5012987;28;20205;-82
2023/09/20 07:13:33;;;;;;;1.88;1.75;;;;;;;;;;4995686;28;20223;-82
2023/09/20 07:16:05;;;;;;;1.58;1.48;;;;;;;;;;5005649;28;20208;-81
2023/09/20 07:18:33;;;;;;;2.88;2.00;;;;;;;;;;4995918;28;20227;-81
2023/09/20 07:21:01;;;;;;;3.88;2.10;;;;;;;;;;5012575;28;20223;-81
2023/09/20 07:23:33;;;;;;;3.13;1.92;;;;;;;;;;5013521;28;20250;-80
2023/09/20 07:26:00;;;;;;;2.13;1.67;;;;;;;;;;5011722;28;20211;-81
2023/09/20 07:28:27;;;;;;;1.85;1.60;;;;;;;;;;5008629;28;20211;-81
2023/09/20 07:30:55;;;;;;;2.67;1.85;;;;;;;;;;5010842;28;20214;-81
2023/09/20 07:33:23;;;;;;;2.10;1.77;;;;;;;;;;5012980;28;20228;-81
2023/09/20 07:35:58;;;;;;;2.97;1.75;;;;;;;;;;5005551;28;20200;-80
2023/09/20 07:38:28;;;;;;;2.78;1.75;;;;;;;;;;5012804;28;20221;-80
2023/09/20 07:41:05;;;;;;;3.17;1.92;;;;;;;;;;5013071;28;20634;-82
2023/09/20 07:43:33;;;;;;;1.90;1.80;;;;;;;;;;5012873;28;20227;-81
2023/09/20 07:46:05;;;;;;;2.40;1.83;;;;;;;;;;5013430;28;20261;-82
2023/09/20 07:48:33;;;;;;;1.80;1.70;;;;;;;;;;5011964;28;20238;-82
2023/09/20 07:51:04;;;;;;;4.35;1.80;;;;;;;;;;5011547;28;20365;-82
2023/09/20 07:53:31;;;;;;;2.00;1.75;;;;;;;;;;4994861;28;20224;-81
2023/09/20 07:56:07;;;;;;;2.08;1.40;;;;;;;;;;5012235;28;20214;-83
2023/09/20 07:58:40;;;;;;;2.50;1.80;;;;;;;;;;5011996;28;20218;-80
2023/09/20 08:01:21;;;;;;;3.20;1.77;;;;;;;;;;5004308;28;20208;-82
2023/09/20 08:03:51;;;;;;;1.90;1.80;;;;;;;;;;4994688;28;20339;-82
2023/09/20 08:06:21;;;;;;;3.95;2.03;;;;;;;;;;5012704;28;20203;-81
2023/09/20 08:08:48;;;;;;;2.60;1.75;;;;;;;;;;5011411;28;20234;-82
2023/09/20 08:11:16;;;;;;;2.80;1.60;;;;;;;;;;5005299;28;20215;-82
2023/09/20 08:13:47;;;;;;;3.10;1.90;;;;;;;;;;5006056;28;20231;-83
2023/09/20 08:16:15;;;;;;;2.47;1.73;;;;;;;;;;5008248;28;20208;-83
2023/09/20 08:21:32;;;;;;;2.50;1.95;;;;;;;;;;5005523;28;20668;-80
2023/09/20 09:00:39;;;;;;;2.88;1.83;;;;;;;;;;5014843;28;20223;-82
2023/09/20 09:03:05;;;;;;;2.63;1.80;;;;;;;;;;5012600;28;20322;-81
2023/09/20 09:05:33;;;;;;;2.25;1.80;;;;;;;;;;5015097;28;20287;-81
2023/09/20 09:08:02;;;;;;;2.70;1.40;;;;;;;;;;4996202;28;20306;-82
2023/09/20 09:10:29;;;;;;;2.30;1.40;;;;;;;;;;5015151;28;20207;-81
2023/09/20 09:12:57;;;;;;;1.48;1.38;;;;;;;;;;5008439;28;20746;-82
2023/09/20 09:15:25;;;;;;;2.63;1.33;;;;;;;;;;5013931;28;20211;-81
2023/09/20 09:17:53;;;;;;;2.40;1.80;;;;;;;;;;5014007;28;20231;-82
2023/09/20 09:20:21;;;;;;;2.75;1.60;;;;;;;;;;5014677;28;20240;-82
2023/09/20 09:22:49;;;;;;;2.60;1.73;;;;;;;;;;5014127;28;20251;-80
2023/09/20 09:25:25;;;;;;;2.72;1.45;;;;;;;;;;5021890;28;20659;-82
2023/09/20 09:27:53;;;;;;;2.30;1.50;;;;;;;;;;5011895;28;20199;-82
2023/09/20 09:30:22;;;;;;;3.03;1.60;;;;;;;;;;5013543;28;20261;-81
2023/09/20 09:32:50;;;;;;;1.77;1.50;;;;;;;;;;5013060;28;20277;-79
2023/09/20 09:35:19;;;;;;;1.55;1.40;;;;;;;;;;5014043;28;20212;-81
2023/09/20 09:37:49;;;;;;;3.25;1.60;;;;;;;;;;5013763;28;20211;-83
2023/09/20 09:40:16;;;;;;;2.30;1.55;;;;;;;;;;4987409;28;20269;-81
2023/09/20 09:42:44;;;;;;;1.80;1.40;;;;;;;;;;5012459;28;20598;-81
2023/09/20 09:45:12;;;;;;;6.70;1.60;;;;;;;;;;5010592;28;20204;-79
2023/09/20 09:47:41;;;;;;;1.67;1.30;;;;;;;;;;5009064;28;20282;-79
2023/09/20 09:50:09;;;;;;;1.70;1.60;;;;;;;;;;5002834;28;20229;-81
2023/09/20 09:52:40;;;;;;;1.55;1.45;;;;;;;;;;4994808;28;20224;-81
2023/09/20 09:55:08;;;;;;;2.70;1.63;;;;;;;;;;4996094;28;20214;-81
2023/09/20 09:57:35;;;;;;;3.92;1.70;;;;;;;;;;4995237;28;20215;-81
2023/09/20 10:00:05;;;;;;;1.52;1.42;;;;;;;;;;5012918;28;20255;-80
2023/09/20 10:02:33;;;;;;;2.10;1.67;;;;;;;;;;5012121;28;20227;-82
2023/09/20 10:05:02;;;;;;;2.35;1.35;;;;;;;;;;5011687;28;20203;-80
2023/09/20 10:07:33;;;;;;;4.10;1.50;;;;;;;;;;5007039;28;20687;-80
2023/09/20 10:10:08;;;;;;;1.20;1.10;;;;;;;;;;4996254;28;20211;-81
2023/09/20 10:12:38;;;;;;;2.63;1.38;;;;;;;;;;5007081;28;20227;-81
2023/09/20 10:15:11;;;;;;;1.55;1.45;;;;;;;;;;5002011;28;20207;-80
2023/09/20 10:17:45;;;;;;;1.90;1.38;;;;;;;;;;5001933;28;20683;-82
2023/09/20 10:20:16;;;;;;;1.33;1.20;;;;;;;;;;5011067;28;20234;-81
2023/09/20 10:22:45;;;;;;;2.15;1.25;;;;;;;;;;5005657;28;20569;-82
2023/09/20 10:25:36;;;;;;;1.70;1.50;;;;;;;;;;5004731;28;20207;-82
2023/09/20 10:28:16;;;;;;;1.33;1.23;;;;;;;;;;4993133;28;20207;-79
2023/09/20 10:30:56;;;;;;;2.70;1.38;;;;;;;;;;5010933;28;20207;-82
2023/09/20 10:33:48;;;;;;;1.75;1.35;;;;;;;;;;5005440;28;20219;-81
2023/09/20 10:36:22;;;;;;;2.03;1.45;;;;;;;;;;4987231;28;20200;-82
2023/09/20 10:38:49;;;;;;;3.50;1.20;;;;;;;;;;5012895;28;20203;-81
2023/09/20 10:41:17;;;;;;;3.80;1.20;;;;;;;;;;5012673;28;20223;-80
2023/09/20 10:43:49;;;;;;;1.33;1.10;;;;;;;;;;4998664;28;20281;-79
2023/09/20 10:46:17;;;;;;;1.17;1.10;;;;;;;;;;5011951;28;20199;-80
2023/09/20 10:48:49;;;;;;;1.35;1.25;;;;;;;;;;5012244;28;20195;-81
2023/09/20 10:51:35;;;;;;;1.65;1.25;;;;;;;;;;5000624;28;20249;-81
2023/09/20 10:54:03;;;;;;;2.10;1.20;;;;;;;;;;4996162;28;20593;-81
2023/09/20 10:56:51;;;;;;;2.15;1.10;;;;;;;;;;5011676;28;20204;-82
2023/09/20 10:59:22;;;;;;;1.95;1.15;;;;;;;;;;5001651;28;20208;-81
2023/09/20 11:01:50;;;;;;;1.77;1.23;;;;;;;;;;4978012;28;20660;-80
2023/09/20 11:04:18;;;;;;;1.30;1.20;;;;;;;;;;4993849;28;20230;-81
2023/09/20 11:06:49;;;;;;;1.50;1.40;;;;;;;;;;4994459;28;20603;-80
2023/09/20 11:09:16;;;;;;;1.20;1.10;;;;;;;;;;5003806;28;20204;-80
2023/09/20 11:11:44;;;;;;;1.30;1.20;;;;;;;;;;5005894;28;20723;-79
2023/09/20 11:14:12;;;;;;;1.30;1.00;;;;;;;;;;5009262;28;20618;-80
2023/09/20 11:16:42;;;;;;;1.40;1.00;;;;;;;;;;5011100;28;20209;-80
2023/09/20 11:19:13;;;;;;;1.40;1.30;;;;;;;;;;4997943;28;20254;-81
2023/09/20 11:21:43;;;;;;;1.55;1.20;;;;;;;;;;5011789;28;20200;-81
2023/09/20 11:24:12;;;;;;;1.30;0.98;;;;;;;;;;5003308;28;20235;-79
2023/09/20 11:26:40;;;;;;;2.08;1.00;;;;;;;;;;5006286;28;20258;-79
2023/09/20 11:29:10;;;;;;;1.73;1.17;;;;;;;;;;5008685;28;20208;-80
2023/09/20 11:31:38;;;;;;;1.20;1.10;;;;;;;;;;5001762;28;20632;-81
2023/09/20 11:34:06;;;;;;;3.90;1.20;;;;;;;;;;5004210;28;20307;-80
2023/09/20 11:36:40;;;;;;;1.30;1.20;;;;;;;;;;5012262;28;20226;-81
2023/09/20 11:39:07;;;;;;;1.73;1.00;;;;;;;;;;4985699;28;20214;-82
2023/09/20 11:41:38;;;;;;;2.42;1.20;;;;;;;;;;5007189;28;20691;-82
2023/09/20 11:44:08;;;;;;;1.02;1.02;;;;;;;;;;5001241;28;20691;-81
2023/09/20 11:46:36;;;;;;;3.53;1.42;;;;;;;;;;5012610;28;20739;-78
2023/09/20 11:49:04;;;;;;;1.83;1.33;;;;;;;;;;5010365;28;20214;-83
2023/09/20 11:51:36;;;;;;;3.97;1.13;;;;;;;;;;5011989;28;20775;-80
2023/09/20 11:54:05;;;;;;;1.05;1.02;;;;;;;;;;4993625;28;20318;-81
2023/09/20 11:56:35;;;;;;;1.00;1.00;;;;;;;;;;4995710;28;20218;-82
2023/09/20 11:59:09;;;;;;;1.48;1.30;;;;;;;;;;5003643;28;20235;-80
2023/09/20 12:01:43;;;;;;;1.95;1.25;;;;;;;;;;5002276;28;20232;-82
2023/09/20 12:04:10;;;;;;;1.10;1.10;;;;;;;;;;5007940;28;20346;-81
2023/09/20 12:06:38;;;;;;;1.38;1.20;;;;;;;;;;5016328;28;20569;-81
2023/09/20 12:09:05;;;;;;;1.70;1.13;;;;;;;;;;5001388;28;20224;-82
2023/09/20 12:11:33;;;;;;;1.52;1.17;;;;;;;;;;5009517;28;20218;-81
2023/09/20 12:14:01;;;;;;;2.65;1.30;;;;;;;;;;5004089;28;20651;-80
2023/09/20 12:16:28;;;;;;;2.40;0.90;;;;;;;;;;5015820;28;20227;-82
2023/09/20 12:18:58;;;;;;;1.23;1.13;;;;;;;;;;5001857;28;20631;-82
2023/09/20 12:21:26;;;;;;;1.58;1.20;;;;;;;;;;5009248;28;20226;-82
2023/09/20 12:23:53;;;;;;;1.30;1.00;;;;;;;;;;5008956;28;20224;-82
2023/09/20 12:26:20;;;;;;;1.15;1.13;;;;;;;;;;4992211;28;20203;-81
2023/09/20 12:28:48;;;;;;;1.27;1.10;;;;;;;;;;5002303;28;20228;-81
2023/09/20 12:31:19;;;;;;;1.42;1.10;;;;;;;;;;5012046;28;20211;-80
2023/09/20 12:33:46;;;;;;;1.83;1.00;;;;;;;;;;5005909;28;20226;-81
2023/09/20 12:36:14;;;;;;;1.20;1.10;;;;;;;;;;4991124;28;20212;-81
2023/09/20 12:38:42;;;;;;;2.40;1.10;;;;;;;;;;5008880;28;20204;-83
2023/09/20 12:41:09;;;;;;;1.85;1.17;;;;;;;;;;5000076;28;20273;-80
2023/09/20 12:43:37;;;;;;;3.15;1.00;;;;;;;;;;5003502;28;20220;-79
2023/09/20 12:46:06;;;;;;;1.30;1.20;;;;;;;;;;5009034;28;20203;-82
2023/09/20 12:48:37;;;;;;;1.25;1.08;;;;;;;;;;5015427;28;20199;-81
2023/09/20 12:51:05;;;;;;;2.58;1.33;;;;;;;;;;5013016;28;20222;-82
2023/09/20 12:53:33;;;;;;;2.05;1.23;;;;;;;;;;4997674;28;20287;-81
2023/09/20 12:56:00;;;;;;;5.13;1.20;;;;;;;;;;5011620;28;20215;-79
2023/09/20 12:58:28;;;;;;;1.20;1.10;;;;;;;;;;5012626;28;20200;-78
2023/09/20 13:00:55;;;;;;;1.52;1.15;;;;;;;;;;5007094;28;20243;-82
2023/09/20 13:03:28;;;;;;;2.35;1.20;;;;;;;;;;4998658;28;20240;-80
2023/09/20 13:05:56;;;;;;;2.83;1.13;;;;;;;;;;5012498;28;20204;-79
2023/09/20 13:08:25;;;;;;;2.50;1.10;;;;;;;;;;4991023;28;20220;-80
2023/09/20 13:10:52;;;;;;;1.13;1.08;;;;;;;;;;5001342;28;20204;-80
2023/09/20 13:13:23;;;;;;;1.67;1.25;;;;;;;;;;5011009;28;20247;-80
2023/09/20 13:15:52;;;;;;;1.88;1.27;;;;;;;;;;4997877;28;20200;-81
2023/09/20 13:18:19;;;;;;;3.22;1.15;;;;;;;;;;5012072;28;20204;-81
2023/09/20 13:20:47;;;;;;;3.13;1.88;;;;;;;;;;5014748;28;20219;-80
2023/09/20 13:23:14;;;;;;;1.63;1.27;;;;;;;;;;5016099;28;20231;-82
2023/09/20 13:25:42;;;;;;;2.25;1.40;;;;;;;;;;5008676;28;20236;-82
2023/09/20 13:28:13;;;;;;;1.27;1.17;;;;;;;;;;5008134;28;20203;-78
2023/09/20 13:30:41;;;;;;;2.22;1.33;;;;;;;;;;5008450;28;20482;-81
2023/09/20 13:33:12;;;;;;;1.27;1.20;;;;;;;;;;4996892;28;20318;-80
2023/09/20 13:35:40;;;;;;;1.35;1.20;;;;;;;;;;5009398;28;20769;-80
2023/09/20 13:38:09;;;;;;;1.17;0.90;;;;;;;;;;5008001;28;20235;-78
2023/09/20 13:40:38;;;;;;;1.40;0.98;;;;;;;;;;5009260;28;20549;-79
2023/09/20 13:43:11;;;;;;;1.20;1.10;;;;;;;;;;5001510;28;20220;-81
2023/09/20 13:45:41;;;;;;;2.05;0.90;;;;;;;;;;5009567;28;20485;-81
2023/09/20 13:48:11;;;;;;;1.55;1.00;;;;;;;;;;5008364;28;20246;-80
2023/09/20 13:50:42;;;;;;;1.98;1.30;;;;;;;;;;5009315;28;20212;-80
2023/09/20 13:53:11;;;;;;;0.95;0.85;;;;;;;;;;5008144;28;20239;-81
2023/09/20 13:55:39;;;;;;;1.98;0.93;;;;;;;;;;5014437;28;20199;-80
2023/09/20 13:58:07;;;;;;;1.25;1.00;;;;;;;;;;5006904;28;20207;-80
2023/09/20 14:00:34;;;;;;;0.88;0.88;;;;;;;;;;4996008;28;20310;-81
2023/09/20 14:03:02;;;;;;;1.38;0.93;;;;;;;;;;4990203;28;20227;-82
2023/09/20 14:05:29;;;;;;;1.10;1.00;;;;;;;;;;5010921;28;20212;-81
2023/09/20 14:07:57;;;;;;;1.80;0.98;;;;;;;;;;4994723;28;20227;-80
2023/09/20 14:10:34;;;;;;;1.15;1.05;;;;;;;;;;4995909;28;20215;-81
2023/09/20 14:13:01;;;;;;;1.00;1.00;;;;;;;;;;5013585;28;20230;-81
2023/09/20 14:15:29;;;;;;;1.67;1.20;;;;;;;;;;5001919;28;20207;-81
2023/09/20 14:18:00;;;;;;;1.25;1.00;;;;;;;;;;4989797;28;20209;-80
2023/09/20 14:20:28;;;;;;;0.93;0.93;;;;;;;;;;4998377;28;20216;-81
2023/09/20 14:22:56;;;;;;;1.20;0.98;;;;;;;;;;5010392;28;20285;-81
2023/09/20 14:25:24;;;;;;;1.13;1.02;;;;;;;;;;4998945;28;20299;-80
2023/09/20 14:27:52;;;;;;;1.00;0.90;;;;;;;;;;5000705;28;20656;-81
2023/09/20 14:30:20;;;;;;;5.10;2.83;;;;;;;;;;4993313;28;20242;-81
2023/09/20 14:32:50;;;;;;;1.80;0.90;;;;;;;;;;4987458;28;20238;-80
2023/09/20 14:35:17;;;;;;;0.95;0.95;;;;;;;;;;5005679;28;20298;-78
2023/09/20 14:37:47;;;;;;;1.02;0.85;;;;;;;;;;5012712;28;20266;-80
2023/09/20 14:40:17;;;;;;;2.42;0.90;;;;;;;;;;5005542;28;20211;-81
2023/09/20 14:42:50;;;;;;;1.90;1.00;;;;;;;;;;5005783;28;20247;-79
2023/09/20 14:45:22;;;;;;;1.17;1.10;;;;;;;;;;5000202;28;20223;-79
2023/09/20 14:47:53;;;;;;;3.42;1.00;;;;;;;;;;5013441;28;20204;-81
2023/09/20 14:50:25;;;;;;;1.23;1.00;;;;;;;;;;5007042;28;20298;-81
2023/09/20 14:52:54;;;;;;;0.93;0.93;;;;;;;;;;5001526;28;20255;-79
2023/09/20 14:55:21;;;;;;;1.48;1.13;;;;;;;;;;5012704;28;20211;-80
2023/09/20 14:57:52;;;;;;;1.30;1.17;;;;;;;;;;5010270;28;20296;-81
2023/09/20 15:00:22;;;;;;;2.55;1.10;;;;;;;;;;4990375;28;20269;-80
2023/09/20 15:02:50;;;;;;;2.08;1.20;;;;;;;;;;5007692;28;20257;-79
2023/09/20 15:05:18;;;;;;;1.25;1.10;;;;;;;;;;5008508;28;20204;-81
2023/09/20 15:07:53;;;;;;;1.30;1.00;;;;;;;;;;4992453;28;20230;-80
2023/09/20 15:10:22;;;;;;;1.88;1.15;;;;;;;;;;5005220;28;20254;-80
2023/09/20 15:12:57;;;;;;;1.50;1.30;;;;;;;;;;5004462;28;20216;-80
2023/09/20 15:15:26;;;;;;;1.10;1.00;;;;;;;;;;5000863;28;20203;-80
2023/09/20 15:17:53;;;;;;;1.30;1.02;;;;;;;;;;5001679;28;20574;-82
2023/09/20 15:20:20;;;;;;;1.17;1.08;;;;;;;;;;5000983;28;20578;-81
2023/09/20 15:22:48;;;;;;;1.42;1.00;;;;;;;;;;4992285;28;20219;-81
2023/09/20 15:25:18;;;;;;;2.13;1.00;;;;;;;;;;5004801;28;20656;-80
2023/09/20 15:27:46;;;;;;;0.95;0.95;;;;;;;;;;5006161;28;20288;-81
2023/09/20 15:30:13;;;;;;;1.30;1.20;;;;;;;;;;4982977;28;20210;-79
2023/09/20 15:32:42;;;;;;;1.70;1.02;;;;;;;;;;5003596;28;20592;-82
2023/09/20 15:35:10;;;;;;;2.22;1.02;;;;;;;;;;5006954;28;20215;-79